createdAt,value
2019-04-01T00:01:55.262Z,99.90
2019-04-01T00:04:25.880Z,99.90
2019-04-01T00:06:59.172Z,99.90
2019-04-01T00:09:29.239Z,99.90
2019-04-01T00:11:59.629Z,99.90
2019-04-01T00:14:29.676Z,99.90
2019-04-01T00:17:00.327Z,99.90
2019-04-01T00:19:30.465Z,99.90
2019-04-01T00:22:00.507Z,99.90
2019-04-01T00:24:33.673Z,99.90
2019-04-01T00:27:03.843Z,99.90
2019-04-01T00:29:34.187Z,99.90
2019-04-01T00:32:04.284Z,99.90
2019-04-01T00:34:38.574Z,99.90
2019-04-01T00:37:08.589Z,99.90
2019-04-01T00:39:38.741Z,99.90
2019-04-01T00:42:27.978Z,99.90
2019-04-01T00:44:58.329Z,99.90
2019-04-01T00:47:28.433Z,99.90
2019-04-01T00:49:59.069Z,99.90
2019-04-01T00:52:41.320Z,99.90
2019-04-01T00:55:11.542Z,99.90
2019-04-01T00:57:41.678Z,99.90
2019-04-01T01:00:13.446Z,99.90
2019-04-01T01:02:45.152Z,99.90
2019-04-01T01:05:15.184Z,99.90
2019-04-01T01:07:45.211Z,99.90
2019-04-01T01:10:15.536Z,99.90
2019-04-01T01:12:45.634Z,99.90
2019-04-01T01:15:15.674Z,99.90
2019-04-01T01:17:45.961Z,99.90
2019-04-01T01:20:16.167Z,99.90
2019-04-01T01:22:46.321Z,99.90
2019-04-01T01:25:19.812Z,99.90
2019-04-01T01:27:49.910Z,99.90
2019-04-01T01:30:20.146Z,99.90
2019-04-01T01:32:53.975Z,99.90
2019-04-01T01:35:24.072Z,99.90
2019-04-01T01:37:54.362Z,99.90
2019-04-01T01:40:24.569Z,99.90
2019-04-01T01:42:54.630Z,99.90
2019-04-01T01:45:24.913Z,99.90
2019-04-01T01:47:55.149Z,99.90
2019-04-01T01:50:28.901Z,99.90
2019-04-01T01:52:58.912Z,99.90
2019-04-01T01:55:29.058Z,99.90
2019-04-01T01:57:59.078Z,99.90
2019-04-01T02:00:31.292Z,99.90
2019-04-01T02:03:01.315Z,99.90
2019-04-01T02:05:31.360Z,99.90
2019-04-01T02:08:01.452Z,99.90
2019-04-01T02:10:31.513Z,99.90
2019-04-01T02:13:01.560Z,99.90
2019-04-01T02:15:31.689Z,99.90
2019-04-01T02:18:01.809Z,99.90
2019-04-01T02:20:31.864Z,99.90
2019-04-01T02:23:01.871Z,99.90
2019-04-01T02:25:31.956Z,99.90
2019-04-01T02:28:02.084Z,99.90
2019-04-01T02:30:32.348Z,99.90
2019-04-01T02:33:04.109Z,99.90
2019-04-01T02:35:34.158Z,99.90
2019-04-01T02:38:05.430Z,99.90
2019-04-01T02:40:35.557Z,99.90
2019-04-01T02:43:05.658Z,99.90
2019-04-01T02:45:35.807Z,99.90
2019-04-01T02:48:05.913Z,99.90
2019-04-01T02:50:36.050Z,99.90
2019-04-01T02:53:06.153Z,99.90
2019-04-01T02:55:36.326Z,99.90
2019-04-01T02:58:06.432Z,99.90
2019-04-01T03:00:40.271Z,99.90
2019-04-01T03:03:10.454Z,99.90
2019-04-01T03:05:40.770Z,99.90
2019-04-01T03:08:10.932Z,99.90
2019-04-01T03:10:40.984Z,99.90
2019-04-01T03:13:14.728Z,99.90
2019-04-01T03:15:44.883Z,99.90
2019-04-01T03:18:15.114Z,99.90
2019-04-01T03:20:45.269Z,99.90
2019-04-01T03:23:16.955Z,99.90
2019-04-01T03:25:47.118Z,99.90
2019-04-01T03:28:17.277Z,99.90
2019-04-01T03:30:47.551Z,99.90
2019-04-01T03:33:17.655Z,99.90
2019-04-01T03:35:48.370Z,99.90
2019-04-01T03:38:18.482Z,99.90
2019-04-01T03:40:48.624Z,99.90
2019-04-01T03:43:18.722Z,99.90
2019-04-01T03:45:48.781Z,99.90
2019-04-01T03:48:18.845Z,99.90
2019-04-01T03:50:48.986Z,99.90
2019-04-01T03:53:19.162Z,99.90
2019-04-01T03:55:51.973Z,99.90
2019-04-01T03:58:22.066Z,99.90
2019-04-01T04:00:52.161Z,99.90
2019-04-01T04:03:22.245Z,99.90
2019-04-01T04:05:53.066Z,99.90
2019-04-01T04:08:23.235Z,99.90
2019-04-01T04:10:53.463Z,99.90
2019-04-01T04:13:26.054Z,99.90
2019-04-01T04:15:56.833Z,99.90
2019-04-01T04:18:26.934Z,99.90
2019-04-01T04:20:56.973Z,99.90
2019-04-01T04:23:28.556Z,99.90
2019-04-01T04:25:58.808Z,99.90
2019-04-01T04:28:28.898Z,99.90
2019-04-01T04:30:59.025Z,99.90
2019-04-01T04:33:29.140Z,99.90
2019-04-01T04:35:59.294Z,99.90
2019-04-01T04:38:29.338Z,99.90
2019-04-01T04:40:59.370Z,99.90
2019-04-01T04:43:29.624Z,99.90
2019-04-01T04:46:03.510Z,99.90
2019-04-01T04:48:33.704Z,99.90
2019-04-01T04:51:03.810Z,99.90
2019-04-01T04:53:34.014Z,99.90
2019-04-01T04:56:04.069Z,99.90
2019-04-01T04:58:34.264Z,99.90
2019-04-01T05:01:04.602Z,99.90
2019-04-01T05:03:34.632Z,99.90
2019-04-01T05:06:04.843Z,99.90
2019-04-01T05:08:34.852Z,99.90
2019-04-01T05:11:04.912Z,99.90
2019-04-01T05:13:38.020Z,99.90
2019-04-01T05:16:08.165Z,99.90
2019-04-01T05:18:38.327Z,99.90
2019-04-01T05:21:08.683Z,99.90
2019-04-01T05:23:39.868Z,99.90
2019-04-01T05:26:11.313Z,99.90
2019-04-01T05:28:43.036Z,99.90
2019-04-01T05:31:14.865Z,99.90
2019-04-01T05:33:55.209Z,99.90
2019-04-01T05:36:19.848Z,99.90
2019-04-01T05:38:49.876Z,99.90
2019-04-01T05:41:19.896Z,99.90
2019-04-01T05:43:50.114Z,99.90
2019-04-01T05:46:20.178Z,99.90
2019-04-01T05:48:50.338Z,99.90
2019-04-01T05:51:20.631Z,99.90
2019-04-01T05:53:50.794Z,99.90
2019-04-01T05:56:21.022Z,99.90
2019-04-01T05:58:51.232Z,99.90
2019-04-01T06:01:26.464Z,99.90
2019-04-01T06:03:56.573Z,99.90
2019-04-01T06:06:26.612Z,99.90
2019-04-01T06:08:56.724Z,99.90
2019-04-01T06:11:27.031Z,99.90
2019-04-01T06:13:57.548Z,99.90
2019-04-01T06:16:27.589Z,99.90
2019-04-01T06:18:57.618Z,99.90
2019-04-01T06:21:27.697Z,99.90
2019-04-01T06:23:58.944Z,99.90
2019-04-01T06:26:29.213Z,99.90
2019-04-01T06:28:59.932Z,99.90
2019-04-01T06:31:30.027Z,99.90
2019-04-01T06:34:01.173Z,99.90
2019-04-01T06:36:31.313Z,99.90
2019-04-01T06:39:01.419Z,99.90
2019-04-01T06:41:31.513Z,99.90
2019-04-01T06:44:01.561Z,99.90
2019-04-01T06:46:31.693Z,99.90
2019-04-01T06:49:01.916Z,99.90
2019-04-01T06:51:32.167Z,99.90
2019-04-01T06:54:02.212Z,99.90
2019-04-01T06:56:32.283Z,99.90
2019-04-01T06:59:02.309Z,99.90
2019-04-01T07:01:32.391Z,99.90
2019-04-01T07:04:02.751Z,99.90
2019-04-01T07:06:33.220Z,99.90
2019-04-01T07:09:05.959Z,99.90
2019-04-01T07:11:36.154Z,99.90
2019-04-01T07:14:08.217Z,99.90
2019-04-01T07:16:39.997Z,99.90
2019-04-01T07:19:10.042Z,99.90
2019-04-01T07:21:40.103Z,99.90
2019-04-01T07:24:10.581Z,99.90
2019-04-01T07:26:43.558Z,99.90
2019-04-01T07:29:13.564Z,99.90
2019-04-01T07:31:43.696Z,99.90
2019-04-01T07:34:13.780Z,99.90
2019-04-01T07:36:43.950Z,99.90
2019-04-01T07:39:14.017Z,99.90
2019-04-01T07:41:44.073Z,99.90
2019-04-01T07:44:14.359Z,99.90
2019-04-01T07:46:44.541Z,99.90
2019-04-01T07:49:14.592Z,99.90
2019-04-01T07:51:44.792Z,99.90
2019-04-01T07:54:18.372Z,99.90
2019-04-01T07:56:47.002Z,99.90
2019-04-01T07:59:17.227Z,99.90
2019-04-01T08:01:47.647Z,99.90
2019-04-01T08:04:17.880Z,99.90
2019-04-01T08:06:47.939Z,99.90
2019-04-01T08:09:18.075Z,99.90
2019-04-01T08:11:50.199Z,99.90
2019-04-01T08:14:20.808Z,99.90
2019-04-01T08:16:50.942Z,99.90
2019-04-01T08:19:21.207Z,99.90
2019-04-01T08:21:52.478Z,99.90
2019-04-01T08:24:22.690Z,99.90
2019-04-01T08:26:52.786Z,99.90
2019-04-01T08:29:30.016Z,99.90
2019-04-01T08:31:54.780Z,99.90
2019-04-01T08:34:33.953Z,99.90
2019-04-01T08:37:04.099Z,99.90
2019-04-01T08:39:53.239Z,99.90
2019-04-01T08:42:23.478Z,99.90
2019-04-01T08:44:53.784Z,99.90
2019-04-01T08:47:23.923Z,99.90
2019-04-01T08:49:55.620Z,99.90
2019-04-01T08:52:25.660Z,99.90
2019-04-01T08:54:55.673Z,99.90
2019-04-01T08:57:26.010Z,99.90
2019-04-01T08:59:56.589Z,99.90
2019-04-01T09:02:26.985Z,99.90
2019-04-01T09:04:57.073Z,99.90
2019-04-01T09:07:27.141Z,99.90
2019-04-01T09:09:57.568Z,99.90
2019-04-01T09:12:28.310Z,99.90
2019-04-01T09:14:59.663Z,99.90
2019-04-01T09:17:29.871Z,99.90
2019-04-01T09:19:59.912Z,99.90
2019-04-01T09:22:29.989Z,99.90
2019-04-01T09:25:00.036Z,99.90
2019-04-01T09:27:30.196Z,99.90
2019-04-01T09:30:00.518Z,99.90
2019-04-01T09:32:30.628Z,99.90
2019-04-01T09:35:00.756Z,99.90
2019-04-01T09:37:31.102Z,99.90
2019-04-01T09:40:01.204Z,99.90
2019-04-01T09:42:31.392Z,99.90
2019-04-01T09:45:01.598Z,99.90
2019-04-01T09:47:31.866Z,99.90
2019-04-01T09:50:05.597Z,99.90
2019-04-01T09:52:35.716Z,99.90
2019-04-01T09:55:06.633Z,99.90
2019-04-01T09:57:37.188Z,99.90
2019-04-01T10:00:09.442Z,99.90
2019-04-01T10:02:39.495Z,99.90
2019-04-01T10:05:10.376Z,99.90
2019-04-01T10:07:40.505Z,99.90
2019-04-01T10:10:12.190Z,99.90
2019-04-01T10:12:42.561Z,99.90
2019-04-01T10:15:12.932Z,99.90
2019-04-01T10:17:43.111Z,99.90
2019-04-01T10:20:14.472Z,99.90
2019-04-01T10:22:45.018Z,99.90
2019-04-01T10:25:15.134Z,99.90
2019-04-01T10:27:45.241Z,99.90
2019-04-01T10:30:15.833Z,99.90
2019-04-01T10:32:45.930Z,99.90
2019-04-01T10:35:16.463Z,99.90
2019-04-01T10:37:46.563Z,99.90
2019-04-01T10:40:16.773Z,99.90
2019-04-01T10:42:46.878Z,99.90
2019-04-01T10:45:17.265Z,99.90
2019-04-01T10:47:47.776Z,99.90
2019-04-01T10:50:17.885Z,99.90
2019-04-01T10:52:48.944Z,99.90
2019-04-01T10:55:19.148Z,99.90
2019-04-01T10:57:49.358Z,99.90
2019-04-01T11:00:19.843Z,99.90
2019-04-01T11:02:50.385Z,99.90
2019-04-01T11:05:20.689Z,99.90
2019-04-01T11:07:50.940Z,99.90
2019-04-01T11:10:21.106Z,99.90
2019-04-01T11:12:51.241Z,99.90
2019-04-01T11:15:22.315Z,99.90
2019-04-01T11:17:52.857Z,99.90
2019-04-01T11:20:23.076Z,99.90
2019-04-01T11:22:53.232Z,99.90
2019-04-01T11:25:23.277Z,99.90
2019-04-01T11:27:53.443Z,99.90
2019-04-01T11:30:23.626Z,99.90
2019-04-01T11:32:56.289Z,99.90
2019-04-01T11:35:26.597Z,99.90
2019-04-01T11:37:56.860Z,99.90
2019-04-01T11:40:27.015Z,99.90
2019-04-01T11:42:57.540Z,99.90
2019-04-01T11:45:27.949Z,99.90
2019-04-01T11:47:58.456Z,99.90
2019-04-01T11:50:28.756Z,99.90
2019-04-01T11:52:58.910Z,99.90
2019-04-01T11:55:29.092Z,99.90
2019-04-01T11:57:59.364Z,99.90
2019-04-01T12:00:29.473Z,99.90
2019-04-01T12:02:59.677Z,99.90
2019-04-01T12:05:29.809Z,99.90
2019-04-01T12:11:00.027Z,99.90
2019-04-01T12:13:30.215Z,99.90
2019-04-01T12:16:00.789Z,99.90
2019-04-01T12:18:31.011Z,99.90
2019-04-01T12:21:01.081Z,99.90
2019-04-01T12:23:31.206Z,99.90
2019-04-01T12:26:14.389Z,99.90
2019-04-01T12:28:36.444Z,99.90
2019-04-01T12:31:05.036Z,99.90
2019-04-01T12:33:35.148Z,99.90
2019-04-01T12:36:06.229Z,99.90
2019-04-01T12:38:36.333Z,99.90
2019-04-01T12:41:06.454Z,99.90
2019-04-01T12:43:36.555Z,99.90
2019-04-01T12:46:06.746Z,99.90
2019-04-01T12:48:36.960Z,99.90
2019-04-01T12:51:07.067Z,99.90
2019-04-01T12:53:37.158Z,99.90
2019-04-01T12:56:07.341Z,99.90
2019-04-01T12:58:37.501Z,99.90
2019-04-01T13:01:07.719Z,99.90
2019-04-01T13:03:37.890Z,99.90
2019-04-01T13:06:07.969Z,99.90
2019-04-01T13:08:38.180Z,99.90
2019-04-01T13:11:08.316Z,99.90
2019-04-01T13:13:38.421Z,99.90
2019-04-01T13:16:09.176Z,99.90
2019-04-01T13:18:39.624Z,99.90
2019-04-01T13:21:11.077Z,99.90
2019-04-01T13:23:41.345Z,99.90
2019-04-01T13:26:11.621Z,99.90
2019-04-01T13:28:42.531Z,99.90
2019-04-01T13:31:12.836Z,99.90
2019-04-01T13:33:43.079Z,99.90
2019-04-01T13:36:13.313Z,99.90
2019-04-01T13:38:44.162Z,99.90
2019-04-01T13:41:15.668Z,99.90
2019-04-01T13:43:46.221Z,99.90
2019-04-01T13:46:16.475Z,99.90
2019-04-01T13:48:57.417Z,99.90
2019-04-01T13:51:18.434Z,99.80
2019-04-01T13:53:48.608Z,99.70
2019-04-01T13:56:18.776Z,99.90
2019-04-01T13:58:48.916Z,99.90
2019-04-01T14:01:19.147Z,99.20
2019-04-01T14:03:49.402Z,99.10
2019-04-01T14:06:19.533Z,99.80
2019-04-01T14:08:50.475Z,99.60
2019-04-01T14:11:21.349Z,99.30
2019-04-01T14:13:51.603Z,99.10
2019-04-01T14:16:21.789Z,98.80
2019-04-01T14:18:52.008Z,99.00
2019-04-01T14:21:23.376Z,98.70
2019-04-01T14:23:53.888Z,98.40
2019-04-01T14:26:24.283Z,99.00
2019-04-01T14:28:54.472Z,98.90
2019-04-01T14:31:24.667Z,98.20
2019-04-01T14:33:54.895Z,98.70
2019-04-01T14:36:25.082Z,98.20
2019-04-01T14:38:55.219Z,98.20
2019-04-01T14:41:25.382Z,98.20
2019-04-01T14:43:55.468Z,98.00
2019-04-01T14:46:25.643Z,98.40
2019-04-01T14:49:00.479Z,98.00
2019-04-01T14:51:30.566Z,98.10
2019-04-01T14:54:00.652Z,98.30
2019-04-01T14:56:30.750Z,97.50
2019-04-01T14:59:00.841Z,96.80
2019-04-01T15:01:30.910Z,96.70
2019-04-01T15:04:01.103Z,96.40
2019-04-01T15:06:31.270Z,96.60
2019-04-01T15:09:01.413Z,97.10
2019-04-01T15:11:31.639Z,96.60
2019-04-01T15:14:01.756Z,96.50
2019-04-01T15:16:31.892Z,96.60
2019-04-01T15:19:02.153Z,96.80
2019-04-01T15:21:32.380Z,96.70
2019-04-01T15:24:02.561Z,96.60
2019-04-01T15:26:33.858Z,95.70
2019-04-01T15:29:04.203Z,96.10
2019-04-01T15:31:34.499Z,95.80
2019-04-01T15:34:04.742Z,96.10
2019-04-01T15:36:34.864Z,95.50
2019-04-01T15:39:06.989Z,95.50
2019-04-01T15:41:37.232Z,95.40
2019-04-01T15:44:09.092Z,95.20
2019-04-01T15:46:39.372Z,94.30
2019-04-01T15:49:11.375Z,93.50
2019-04-01T15:51:41.387Z,92.40
2019-04-01T15:54:11.565Z,91.60
2019-04-01T15:56:41.966Z,90.80
2019-04-01T15:59:12.555Z,89.60
2019-04-01T16:01:42.637Z,88.60
2019-04-01T16:04:16.202Z,87.10
2019-04-01T16:06:44.795Z,85.40
2019-04-01T16:09:14.948Z,85.10
2019-04-01T16:11:45.210Z,84.30
2019-04-01T16:14:18.988Z,84.30
2019-04-01T16:16:47.628Z,82.90
2019-04-01T16:19:17.895Z,82.90
2019-04-01T16:21:47.994Z,83.40
2019-04-01T16:24:18.230Z,82.90
2019-04-01T16:26:48.302Z,83.00
2019-04-01T16:29:18.471Z,82.50
2019-04-01T16:31:48.624Z,81.90
2019-04-01T16:34:18.883Z,81.80
2019-04-01T16:36:49.109Z,82.40
2019-04-01T16:39:19.303Z,82.40
2019-04-01T16:41:50.548Z,82.20
2019-04-01T16:44:21.062Z,82.80
2019-04-01T16:46:51.158Z,81.00
2019-04-01T16:49:21.282Z,81.60
2019-04-01T16:51:51.369Z,81.20
2019-04-01T16:54:21.612Z,81.50
2019-04-01T16:56:51.917Z,80.60
2019-04-01T16:59:22.042Z,80.50
2019-04-01T17:01:52.345Z,82.00
2019-04-01T17:04:22.940Z,81.60
2019-04-01T17:06:53.074Z,81.70
2019-04-01T17:09:23.221Z,82.60
2019-04-01T17:11:54.435Z,83.20
2019-04-01T17:14:24.928Z,82.90
2019-04-01T17:16:55.291Z,83.60
2019-04-01T17:19:27.892Z,83.60
2019-04-01T17:21:57.496Z,83.10
2019-04-01T17:24:28.117Z,83.60
2019-04-01T17:27:12.758Z,85.10
2019-04-01T17:29:44.835Z,86.40
2019-04-01T17:32:15.162Z,88.00
2019-04-01T17:34:45.402Z,89.50
2019-04-01T17:37:15.526Z,90.30
2019-04-01T17:39:45.727Z,91.20
2019-04-01T17:42:16.931Z,91.50
2019-04-01T17:44:47.360Z,92.00
2019-04-01T17:47:17.544Z,92.40
2019-04-01T17:49:48.579Z,92.90
2019-04-01T17:52:18.787Z,93.30
2019-04-01T17:54:48.915Z,93.50
2019-04-01T17:57:19.092Z,94.00
2019-04-01T17:59:49.213Z,94.40
2019-04-01T18:02:27.802Z,94.60
2019-04-01T18:04:57.928Z,94.90
2019-04-01T18:07:28.192Z,95.30
2019-04-01T18:09:59.205Z,95.50
2019-04-01T18:12:30.185Z,95.80
2019-04-01T18:15:00.418Z,96.10
2019-04-01T18:17:30.608Z,96.40
2019-04-01T18:20:00.815Z,97.00
2019-04-01T18:22:31.015Z,97.10
2019-04-01T18:25:01.239Z,97.90
2019-04-01T18:27:31.514Z,97.70
2019-04-01T18:30:01.729Z,98.00
2019-04-01T18:32:31.877Z,98.10
2019-04-01T18:35:04.046Z,98.30
2019-04-01T18:37:33.951Z,98.70
2019-04-01T18:40:04.612Z,99.10
2019-04-01T18:42:34.771Z,99.20
2019-04-01T18:45:05.428Z,99.30
2019-04-01T18:47:38.746Z,99.60
2019-04-01T18:50:07.631Z,99.80
2019-04-01T18:52:38.349Z,99.90
2019-04-01T18:55:09.031Z,99.90
2019-04-01T18:57:39.210Z,99.90
2019-04-01T19:00:13.061Z,99.90
2019-04-01T19:02:43.195Z,99.90
2019-04-01T19:05:15.290Z,99.90
2019-04-01T19:07:46.239Z,99.90
2019-04-01T19:10:16.685Z,99.90
2019-04-01T19:12:46.861Z,99.90
2019-04-01T19:15:17.143Z,99.90
2019-04-01T19:17:47.320Z,99.90
2019-04-01T19:20:17.407Z,99.90
2019-04-01T19:22:47.695Z,99.90
2019-04-01T19:25:17.962Z,99.90
2019-04-01T19:27:48.187Z,99.90
2019-04-01T19:30:19.456Z,99.90
2019-04-01T19:32:49.684Z,99.90
2019-04-01T19:35:19.796Z,99.90
2019-04-01T19:37:49.932Z,99.90
2019-04-01T19:40:20.668Z,99.90
2019-04-01T19:42:51.023Z,99.90
2019-04-01T19:45:21.254Z,99.90
2019-04-01T19:47:51.455Z,99.90
2019-04-01T19:50:21.689Z,99.90
2019-04-01T19:52:51.862Z,99.90
2019-04-01T19:55:22.081Z,99.90
2019-04-01T19:57:52.158Z,99.90
2019-04-01T20:00:28.142Z,99.90
2019-04-01T20:02:55.275Z,99.90
2019-04-01T20:05:26.035Z,99.90
2019-04-01T20:07:56.264Z,99.90
2019-04-01T20:10:28.416Z,99.90
2019-04-01T20:12:58.373Z,99.90
2019-04-01T20:15:28.562Z,99.90
2019-04-01T20:17:58.638Z,99.90
2019-04-01T20:20:28.836Z,99.90
2019-04-01T20:22:59.017Z,99.90
2019-04-01T20:25:29.181Z,99.90
2019-04-01T20:27:59.445Z,99.90
2019-04-01T20:30:29.545Z,99.90
2019-04-01T20:32:59.691Z,99.90
2019-04-01T20:35:29.855Z,99.90
2019-04-01T20:37:59.969Z,99.90
2019-04-01T20:40:30.184Z,99.90
2019-04-01T20:43:00.400Z,99.90
2019-04-01T20:45:34.300Z,99.90
2019-04-01T20:48:04.863Z,99.90
2019-04-01T20:50:35.242Z,99.90
2019-04-01T20:53:05.455Z,99.90
2019-04-01T20:55:47.715Z,99.90
2019-04-01T20:58:07.688Z,99.90
2019-04-01T21:00:38.240Z,99.90
2019-04-01T21:03:08.799Z,99.90
2019-04-01T21:05:39.001Z,99.90
2019-04-01T21:08:09.071Z,99.90
2019-04-01T21:10:39.297Z,99.90
2019-04-01T21:13:09.424Z,99.90
2019-04-01T21:15:40.015Z,99.90
2019-04-01T21:18:10.218Z,99.90
2019-04-01T21:20:42.278Z,99.90
2019-04-01T21:23:12.807Z,99.90
2019-04-01T21:25:42.908Z,99.90
2019-04-01T21:28:13.007Z,99.90
2019-04-01T21:30:44.832Z,99.90
2019-04-01T21:33:15.079Z,99.90
2019-04-01T21:35:45.248Z,99.90
2019-04-01T21:38:15.468Z,99.90
2019-04-01T21:40:45.630Z,99.90
2019-04-01T21:43:16.376Z,99.90
2019-04-01T21:45:46.533Z,99.90
2019-04-01T21:48:16.721Z,99.90
2019-04-01T21:50:46.838Z,99.90
2019-04-01T21:53:16.995Z,99.90
2019-04-01T21:55:47.237Z,99.90
2019-04-01T21:58:17.516Z,99.90
2019-04-01T22:01:00.137Z,99.90
2019-04-01T22:03:31.878Z,99.90
2019-04-01T22:06:02.112Z,99.90
2019-04-01T22:08:32.301Z,99.90
2019-04-01T22:11:02.760Z,99.90
2019-04-01T22:13:32.938Z,99.90
2019-04-01T22:16:03.125Z,99.90
2019-04-01T22:18:33.230Z,99.90
2019-04-01T22:21:03.523Z,99.90
2019-04-01T22:23:34.192Z,99.90
2019-04-01T22:26:05.258Z,99.90
2019-04-01T22:28:35.446Z,99.90
2019-04-01T22:31:05.649Z,99.90
2019-04-01T22:33:35.728Z,99.90
2019-04-01T22:36:05.898Z,99.90
2019-04-01T22:38:36.017Z,99.90
2019-04-01T22:41:06.206Z,99.90
2019-04-01T22:43:36.323Z,99.90
2019-04-01T22:46:06.403Z,99.90
2019-04-01T22:48:36.542Z,99.90
2019-04-01T22:51:08.521Z,99.90
2019-04-01T22:53:38.495Z,99.90
2019-04-01T22:56:08.719Z,99.90
2019-04-01T22:58:38.834Z,99.90
2019-04-01T23:01:09.032Z,99.90
2019-04-01T23:03:40.044Z,99.90
2019-04-01T23:06:10.342Z,99.90
2019-04-01T23:08:40.412Z,99.90
2019-04-01T23:11:10.586Z,99.90
2019-04-01T23:13:40.685Z,99.90
2019-04-01T23:16:10.888Z,99.90
2019-04-01T23:18:40.923Z,99.90
2019-04-01T23:21:11.164Z,99.90
2019-04-01T23:23:41.323Z,99.90
2019-04-01T23:26:11.473Z,99.90
2019-04-01T23:28:41.647Z,99.90
2019-04-01T23:31:11.849Z,99.90
2019-04-01T23:33:42.070Z,99.90
2019-04-01T23:36:12.697Z,99.90
2019-04-01T23:38:42.970Z,99.90
2019-04-01T23:41:13.061Z,99.90
2019-04-01T23:43:43.111Z,99.90
2019-04-01T23:46:13.308Z,99.90
2019-04-01T23:48:43.386Z,99.90
2019-04-01T23:51:13.510Z,99.90
2019-04-01T23:53:43.794Z,99.90
2019-04-01T23:56:13.917Z,99.90
2019-04-01T23:58:44.061Z,99.90
